Uladzislau Yablonski

Olheiro-Chefe - BATE
4 Dez 2028
Segunda-feira
Processo

Personalidade

Adaptabilidade (7) Ambição (3) Controvérsia (5) Lealdade (16) Pressão (10) Profissionalismo (1) Espírito Esportivo (19) Temperamento (17)

Perfil

Estilo de Treinamento Democrático
Licença Nacional A
Determinação 5
Gestão de Pessoas 7
Motivação 11
Disciplina 5
Satisfação no Trabalho
100%
Fadiga
0%
Função Olheiro-Chefe
Salário 27.4K p/s
Contrato 14.03.2029

Desempenho

Comportamento Bom
Eficácia do Treinamento
49%
Desenvolvimento do Jogador
30%
Prevenção de Lesões
40%
Implementação Tática
50%

Eventos Recentes

Participou de uma reunião de recrutamento agora
Participou de uma reunião de recrutamento 7d atrás
Recomendou um alvo de transferência 7d atrás
Recomendou um alvo de transferência 7d atrás
Participou de uma reunião de recrutamento 14d atrás
Recomendou um alvo de transferência 14d atrás
Recomendou um alvo de transferência 14d atrás
Recomendou um alvo de transferência 21d atrás

Monitorando agora

218
Jogador Clube Status Habilidade Confiança Observado Última observação Último voto
Issa Hissein AS Etat Major Ativo 67 / 70 40% 1 05.09.2028 -
Mirkomil Murodov Orsha Ativo 74 / 73 40% 1 05.09.2028 -
Matvey Susha Naftan Ativo 77 / 76 40% 1 05.09.2028 -
Fernando Costanza Krylya Sovetov Ativo 132 / 130 40% 9 28.06.2028 -
Ilja Agapov Ufa Ativo 115 / 115 40% 4 28.06.2028 -
Rhys Walters Port Vale Ativo 116 / 108 40% 1 28.06.2028 -
Matija Popović Fakel Ativo 113 / 118 40% 1 14.06.2028 -
Gamid Agalarov Orenburg Ativo 111 / 116 40% 1 14.06.2028 -
Alessandro Ghillani Lumezzane Ativo 101 / 111 40% 1 13.06.2028 -
Gennaro Tutino Sampdoria Ativo 137 / 122 40% 1 13.06.2028 -
Artem Mamin Doncaster Rovers Ativo 99 / 107 40% 1 05.06.2028 -
Andy Rinomhota Reading Ativo 113 / 122 40% 1 05.06.2028 -
Maxime Sivis Orenburg Ativo 116 / 122 40% 5 29.05.2028 -
Garrik Levin Chelyabinsk Ativo 108 / 109 40% 1 29.05.2028 -
Marat Bokoev Akron Ativo 118 / 123 40% 2 28.05.2028 -
Nikita Kakkoev Nizhniy Novgorod Ativo 123 / 115 40% 2 28.05.2028 -
Fahd Moufi Baltika Ativo 121 / 116 40% 4 27.05.2028 -
Yegor Danilkin Rotor Ativo 103 / 102 40% 2 27.05.2028 -
Artem Makarchuk Sochi Ativo 107 / 109 40% 4 24.05.2028 -
Marcelo Alves SKA Khabarovsk Ativo 120 / 112 40% 2 24.05.2028 -
Connor Barrett Walsall Ativo 100 / 105 40% 2 24.05.2028 -
Stefan Lončar Akron Ativo 122 / 116 40% 7 23.05.2028 -
Conor Shaughnessy Fleetwood Town Ativo 122 / 121 40% 1 23.05.2028 -
Pol Valentín Cambridge United Ativo 129 / 116 40% 3 22.05.2028 -
Ilja Zhigulev Chernomorets Ativo 103 / 103 40% 1 22.05.2028 -
Miroslav Bogosavac Akhmat Grozny Ativo 117 / 116 40% 3 20.05.2028 -
Pavel Maslov Chaika Ativo 115 / 108 40% 1 20.05.2028 -
Robert Mejía Orenburg Ativo 119 / 115 40% 5 19.05.2028 -
Connor Ogilvie Grimsby Town Ativo 102 / 112 40% 2 16.05.2028 -
Alexandr Korotkov Rotor Ativo 101 / 103 40% 1 16.05.2028 -
Igor Konovalov Chernomorets Ativo 106 / 98 40% 1 15.05.2028 -
Darko Todorović Fakel Ativo 112 / 117 40% 6 14.05.2028 -
Bojan Roganović Torpedo Moscow Ativo 118 / 110 40% 1 12.05.2028 -
David Kokoev Yenisey Ativo 102 / 104 40% 3 10.05.2028 -
Greg Docherty Barrow AFC Ativo 128 / 115 40% 2 10.05.2028 -
Charlie Goode Exeter City Ativo 103 / 106 40% 1 10.05.2028 -
Alexandr Ivankov Torpedo Moscow Ativo 112 / 115 40% 1 08.05.2028 -
Ben Whiteman Harrogate Town Ativo 122 / 124 40% 1 08.05.2028 -
Kirill Bozhenov Sokol Ativo 105 / 105 40% 1 07.05.2028 -
Stanislav Magkeev Fakel Ativo 118 / 113 40% 2 05.05.2028 -
Andrés Alarcón Dinamo Makhachkala Ativo 118 / 114 40% 4 04.05.2028 -
Yegor Noskov SKA Khabarovsk Ativo 106 / 98 40% 1 04.05.2028 -
Owen Bailey Doncaster Rovers Ativo 116 / 110 40% 1 02.05.2028 -
Grigoriy Martyanov Torpedo-BelAZ Ativo 80 / 91 69% 1 07.02.2028 Aprovar
Yegor Kortsov Dinamo Brest Ativo 118 / 109 40% 2 26.01.2028 -
Maksim Samorodov Akhmat Grozny Ativo 130 / 125 40% 6 24.01.2028 -
Alexey Kashtanov Torpedo Moscow Negociando 109 / 111 40% 1 24.01.2028 -
Ilja Tuseev Chelyabinsk Ativo 107 / 98 40% 11 23.01.2028 -
Igor Obukhov Fakel Ativo 111 / 106 40% 8 22.01.2028 -
Michele Cerofolini Empoli Ativo 122 / 127 40% 5 22.01.2028 -
Cesare Galeotti Trapani Ativo 115 / 122 40% 2 22.01.2028 -
Rustam Yatimov Rostov Ativo 119 / 119 40% 12 21.01.2028 -
Alexey Kuznetsov Leningradets Ativo 102 / 104 40% 8 20.01.2028 -
Rostislav Soldatenko Torpedo Moscow Ativo 107 / 105 40% 9 19.01.2028 -
Yegor Lyubakov Arsenal Tula Ativo 95 / 101 40% 7 19.01.2028 -
Kristjan Matošević Triestina Ativo 124 / 119 40% 1 18.01.2028 -
Anderson Arroyo Rubin Ativo 122 / 120 40% 6 17.01.2028 -
Timur Kraikov Sokol Ativo 105 / 97 40% 4 17.01.2028 -
William Rovida Pro Patria Ativo 115 / 113 40% 1 17.01.2028 -
Matías Machado Racing Ativo 110 / 119 40% 1 17.01.2028 -
Vladislav Masternoy SKA Khabarovsk Ativo 103 / 94 40% 1 17.01.2028 -
Dmitry Vasiljev Orenburg Ativo 120 / 124 40% 3 13.01.2028 -
Nikita Yanovich Tyumen Ativo 96 / 102 40% 3 13.01.2028 -
Ivan Lomaev Ufa Ativo 118 / 110 40% 9 12.01.2028 -
Petr Kosarevskiy Sibir Ativo 105 / 112 40% 10 12.01.2028 -
Arsen Adamov Akhmat Grozny Ativo 120 / 119 40% 4 10.01.2028 -
Sergey Volkov Zenit Ativo 114 / 119 40% 3 10.01.2028 -
Leonardo Marson Gubbio Ativo 105 / 116 40% 1 10.01.2028 -
Evgeny Latyshonok Nizhniy Novgorod Ativo 124 / 129 40% 5 08.01.2028 -
Pedro Souza Gefle Ativo 101 / 96 40% 1 07.01.2028 -
Ludovico Del Sorbo Sorrento Ativo 114 / 124 40% 2 06.01.2028 -
Ignacio Saavedra Sochi Ativo 121 / 120 40% 2 06.01.2028 -
Bogdan Ovsyannikov Orenburg Ativo 119 / 116 40% 13 04.01.2028 -
Sergio Barlocco Trento Ativo 113 / 121 40% 2 04.01.2028 -
Ángel Maciel Tacuarembo Ativo 100 / 121 40% 4 03.01.2028 -
Alexandr Kovalenko Sochi Ativo 118 / 118 40% 1 03.01.2028 -
Luciano Recalde Quilmes Ativo 112 / 106 40% 1 03.01.2028 -
Antonino Viola Catania Ativo 118 / 117 40% 1 31.12.2027 -
Alexandr Koryakin Krasnodar Ativo 116 / 119 40% 2 30.12.2027 -
Stefan Kovač Baltika Ativo 125 / 122 40% 7 29.12.2027 -
Gianluca Saro Foggia Ativo 117 / 127 40% 1 29.12.2027 -
Gabriele Baldi Guidonia Montecelio Ativo 105 / 117 40% 1 29.12.2027 -
Alexey Mironov Rostov Ativo 118 / 120 40% 2 28.12.2027 -
Igor Jesus Los Angeles Football Club Ativo 132 / 120 40% 1 28.12.2027 -
Veldin Hodža Rubin Ativo 125 / 119 40% 5 27.12.2027 -
Franco Hanashiro Colegiales Ativo 110 / 110 40% 1 27.12.2027 -
Konstantin Kovalev Volga Ativo 100 / 98 40% 1 26.12.2027 -
Riccardo Gagno Vicenza Ativo 136 / 115 40% 1 21.12.2027 -
Timur Magomedov Ufa Ativo 119 / 114 40% 6 17.12.2027 -
Soslan Takulov Arsenal Tula Ativo 98 / 102 40% 1 17.12.2027 -
Evgeny Staver Rubin Ativo 119 / 112 40% 10 06.12.2027 -
Ivan Kukushkin Baltika Ativo 106 / 106 40% 4 05.12.2027 -
Francesco D'Alterio Ternana Ativo 109 / 106 40% 1 04.12.2027 -
Ilja Pomazun Spartak Moscow Ativo 118 / 126 40% 5 03.12.2027 -
Vadim Uljanov Krylya Sovetov Ativo 108 / 116 40% 4 03.12.2027 -
Semuel Pizzignacco Monza Ativo 128 / 119 40% 1 30.11.2027 -
Nikita Goilo Zenit Ativo 112 / 104 40% 2 21.11.2027 -
Lautaro Herrera Estudiantes Ativo 99 / 106 40% 2 20.11.2027 -
David Volk Nizhniy Novgorod Ativo 108 / 114 40% 4 10.11.2027 -
Maxim Belov Dinamo Brest Ativo 91 / 92 40% 2 08.11.2027 -
Igor Leschuk Dinamo Moscow Ativo 122 / 123 40% 8 05.11.2027 -
Joaquín Bigo Tristán Suárez Ativo 103 / 100 40% 3 24.10.2027 -
Alexey Mamin Ural Ativo 107 / 106 40% 1 09.10.2027 -
Islam Imamov SKA Khabarovsk Ativo 101 / 99 40% 1 07.10.2027 -
Cristian Rivero Real Sociedad Ativo 143 / 127 40% 6 29.09.2027 -
Toni Fuidias Girona Ativo 125 / 128 40% 2 29.09.2027 -
Nikita Kokarev Spartak Moscow Ativo 119 / 128 40% 4 28.09.2027 -
Fabricio Iacovich Girona Ativo 124 / 133 40% 1 26.09.2027 -
Daniil Frolkin Orenburg Ativo 116 / 108 40% 2 25.09.2027 -
Renato Solís Sporting Cristal Ativo 121 / 124 40% 2 25.09.2027 -
Joe Gauci Leeds United Ativo 115 / 123 40% 1 14.09.2027 -
Cristian Santander Barranquilla Ativo 107 / 107 40% 1 05.09.2027 -
Tomás Lingua Universidad Catolica Ativo 95 / 104 40% 1 26.08.2027 -
Joaquín Mendive Tristán Suárez Ativo 98 / 108 40% 1 13.08.2027 -
Lucas Verza Olimpia Ativo 104 / 111 40% 1 31.07.2027 -
Daniel Prieto Alianza Atletico Ativo 114 / 122 40% 1 29.07.2027 -
Álvaro Fernández Valencia Ativo 152 / 155 40% 3 26.07.2027 -
Maxim Rudakov Chernomorets Ativo 95 / 100 40% 1 26.07.2027 -
Aitor Arias Leganés Ativo 107 / 103 40% 1 22.07.2027 -
Luis Ureta Alanyaspor Ativo 93 / 106 40% 1 21.07.2027 -
Juan Pablo Noce All Boys Ativo 113 / 101 40% 1 10.07.2027 -
Maxim Borisko CSKA Moscow Ativo 127 / 134 40% 3 07.07.2027 -
Gino Santilli Kalmar FF Ativo 121 / 115 40% 1 30.06.2027 -
Anton Mitryushkin Lokomotiv Moscow Ativo 124 / 120 40% 4 28.06.2027 -
Mikhail Ignatov Sochi Ativo 113 / 117 40% 4 14.06.2027 -
Vladimir Khubulov Dinamo Makhachkala Ativo 104 / 108 40% 5 14.06.2027 -
Vyacheslav Grulev Nizhniy Novgorod Ativo 112 / 116 40% 11 13.06.2027 -
Unai Ropero Alavés Ativo 117 / 103 40% 1 13.06.2027 -
Denis Makarov Krylya Sovetov Ativo 120 / 124 40% 8 11.06.2027 -
Ruslan Apekov Torpedo Moscow Ativo 108 / 102 40% 4 11.06.2027 -
Iker Pozo Rodina Ativo 112 / 110 40% 10 09.06.2027 -
Mario Ćurić Torpedo Moscow Ativo 103 / 109 40% 4 09.06.2027 -
Ramazan Gadjimuradov Chelyabinsk Ativo 106 / 111 40% 7 05.06.2027 -
Egas Cacintura Akhmat Grozny Ativo 118 / 127 40% 7 02.06.2027 -
Georgie Gent Barnsley Ativo 114 / 104 40% 1 30.05.2027 -
Ilja Vakhania Krasnodar Ativo 114 / 113 40% 7 29.05.2027 -
Leo Goglichidze Rodina Ativo 115 / 117 40% 7 26.05.2027 -
Ruslan Bezrukov Rubin Ativo 114 / 111 40% 4 25.05.2027 -
Ivan Komarov Rostov Ativo 117 / 112 40% 5 24.05.2027 -
Nazmi Gripshi Rubin Ativo 119 / 117 40% 2 24.05.2027 -
Kirill Danilin Ural Ativo 103 / 102 40% 9 21.05.2027 -
Georgy Melkadze Akhmat Grozny Ativo 121 / 111 40% 4 16.05.2027 -
Martin Kramarič Krylya Sovetov Ativo 119 / 109 40% 5 15.05.2027 -
Job Ochieng Real Sociedad Ativo 98 / 109 40% 1 15.05.2027 -
Douglas Augusto Krasnodar Ativo 129 / 131 40% 2 08.05.2027 -
Eldar Ćivić Baltika Ativo 124 / 117 40% 5 06.05.2027 -
Vyacheslav Yakimov Fakel Ativo 107 / 110 40% 2 04.05.2027 -
Ilja Safronov Rotor Ativo 109 / 97 40% 1 01.05.2027 -
Đorđe Pantelić Spartak Kostroma Ativo 112 / 104 40% 4 30.04.2027 -
Konstantin Kuchaev Rostov Ativo 124 / 115 40% 7 24.04.2027 -
Vladislav Malkevich Ural Ativo 108 / 102 40% 1 18.04.2027 -
Temirkan Sundukov Dinamo Makhachkala Ativo 117 / 116 40% 4 17.04.2027 -
Tenton Yenne Baltika Ativo 115 / 114 40% 5 13.04.2027 -
Ivan Oleinikov Krylya Sovetov Ativo 123 / 116 40% 6 09.04.2027 -
Kamran Aliev SKA Khabarovsk Ativo 102 / 103 40% 1 04.04.2027 -
Amar Rahmanović Krylya Sovetov Ativo 108 / 109 40% 2 02.04.2027 -
Lechi Sadulaev Akhmat Grozny Ativo 127 / 127 40% 7 30.03.2027 -
Ugochukwu Iwu Rubin Ativo 126 / 113 40% 4 22.03.2027 -
Dardan Shabanhaxhaj Rubin Ativo 118 / 115 40% 4 22.03.2027 -
Yury Zheleznov Akron Ativo 100 / 102 40% 2 22.03.2027 -
Bogdan Jočić Rubin Ativo 110 / 111 40% 3 16.03.2027 -
Mihajlo Banjac Krylya Sovetov Ativo 108 / 110 40% 3 13.03.2027 -
Mohammad Javad Hosseinnejad Dinamo Makhachkala Ativo 106 / 119 40% 3 12.03.2027 -
Moisés CSKA Moscow Ativo 124 / 124 40% 2 10.03.2027 -
Vladislav Sarveli Nizhniy Novgorod Ativo 116 / 109 40% 2 10.03.2027 -
Maxim Mukhin Rostov Ativo 116 / 111 40% 2 07.03.2027 -
Vladislav Solanovich Belshina Ativo 88 / 88 69% 1 15.02.2027 Aprovar
Alexandr Filin Baltika Ativo 109 / 113 40% 1 08.02.2027 -
Ítalo Ural Ativo 113 / 117 40% 1 08.02.2027 -
Andrey Langovich Rostov Ativo 111 / 114 40% 2 14.01.2027 -
Denil Maldonado Rubin Ativo 115 / 120 40% 1 14.01.2027 -
Kirill Schetinin Akhmat Grozny Ativo 115 / 118 40% 2 08.01.2027 -
François Kamano Sochi Ativo 116 / 118 40% 3 28.12.2026 -
Edu Expósito Espanyol Ativo 148 / 129 40% 1 27.12.2026 -
Edgardo Fariña Nizhniy Novgorod Ativo 112 / 108 40% 1 25.12.2026 -
Kevin Pina Krasnodar Ativo 118 / 132 40% 1 24.12.2026 -
Júlio Romão Akhmat Grozny Ativo 117 / 120 40% 2 22.12.2026 -
Mingiyan Beveev Baltika Ativo 118 / 114 40% 1 20.12.2026 -
Ousmane Ndong Akhmat Grozny Ativo 110 / 104 40% 1 16.12.2026 -
Victor Melekhin Rostov Ativo 120 / 130 40% 1 14.12.2026 -
Vladis Emmersón Yenisey Ativo 112 / 110 40% 1 12.12.2026 -
Mitja Križan Rodina Ativo 109 / 99 40% 1 12.12.2026 -
Nikolay Rasskazov Krylya Sovetov Ativo 108 / 108 40% 3 08.12.2026 -
Roman Yezhov Sochi Ativo 107 / 103 40% 1 04.12.2026 -
Christopher Martins Pereira Spartak Moscow Ativo 125 / 127 40% 1 28.11.2026 -
Dmitry Skopintsev Dinamo Moscow Ativo 113 / 119 40% 2 10.11.2026 -
Guljigit Alykulov Dinamo Minsk Ativo 107 / 113 40% 2 09.11.2026 -
Tom Pearce Chesterfield Ativo 104 / 108 40% 2 05.11.2026 -
Mariano Bracamonte Deportivo Riestra Ativo 128 / 118 40% 2 04.11.2026 -
Tobías Bovone Deportivo Pereira Ativo 105 / 100 40% 2 04.11.2026 -
Lucas Cepeda Elche Ativo 113 / 136 40% 1 04.11.2026 -
Eli King Gillingham Ativo 105 / 119 40% 1 04.11.2026 -
Alexis Steimbach Gimnasia La Plata Ativo 114 / 116 40% 2 01.11.2026 -
Luke Molyneux Doncaster Rovers Ativo 125 / 101 40% 2 01.11.2026 -
Aymen Boutoutaou FCSB Ativo 109 / 102 40% 1 01.11.2026 -
Matías Pellegrini Vélez Ativo 119 / 108 40% 2 30.10.2026 -
Olaus Skarsem Sarpsborg 08 Ativo 120 / 99 40% 3 30.10.2026 -
Matthias Seidl Rapid Wien Ativo 132 / 136 40% 1 28.10.2026 -
Kein Sato FC Tokyo Ativo 122 / 122 40% 2 27.10.2026 -
Fredéric Ananou Olimpija Ljubljana Ativo 116 / 111 40% 1 26.10.2026 -
Sebastian Mailat Botosani Ativo 117 / 118 40% 1 21.10.2026 -
Josh Benson Rotherham United Ativo 96 / 111 40% 1 21.10.2026 -
Lawrence Ennali Houston Dynamo Ativo 107 / 101 40% 1 14.10.2026 -
Matthew Garbett Peterborough United Ativo 109 / 114 40% 1 14.10.2026 -
Isaac Matondo Koper Ativo 104 / 107 40% 1 09.10.2026 -
Thomas Carrique Andorra Ativo 111 / 109 40% 1 08.10.2026 -
Rauno Sappinen Flora Ativo 118 / 115 40% 1 08.10.2026 -
Daniel Kyerewaa Reading Ativo 103 / 122 40% 1 08.10.2026 -
Marcus Browne AFC Wimbledon Ativo 110 / 96 40% 1 05.10.2026 -
Mauricio Cardillo San Lorenzo Ativo 123 / 130 40% 1 07.09.2026 -
Francisco Gerometta Godoy Cruz Ativo 121 / 113 40% 1 07.09.2026 -
Hakeem Odoffin Luton Town Ativo 106 / 118 40% 1 07.09.2026 -
Fabricio Corbalán Gimnasia La Plata Ativo 114 / 119 40% 1 31.08.2026 -
Rüstəm Əhmədzadə Sumgayit Ativo 103 / 118 40% 1 24.08.2026 -
Franck Boli Al Ahly Ativo 110 / 117 40% 1 24.08.2026 -
Tom Holmes Luton Town Ativo 117 / 98 40% 1 18.08.2026 -
Mark McGuinness Sheffield United Ativo 113 / 105 40% 1 18.08.2026 -
Timofey Kashitsyn Spartak Nalchik Ativo 53 / 56 40% 1 06.08.2026 -